Terminal Aerodrome Forecast
Issued by NWS

Home | Current Version | Previous Version | Text Only | Print | Product List | Glossary On
Versions: 1 2 3 4 5 6 7 8 9 10 11 12 13 14 15 16 17
000
FTUS45 KSLC 242015 AAB
TAFEVW
TAF AMD
KEVW 242015Z 2420/2518 24010KT 3SM -SN BKN005 OVC015
     FM250000 26014KT 2SM -SHSN SCT009 BKN020
     FM250300 24011KT P6SM VCSH SCT020 BKN035
     FM250900 25012KT P6SM -SHSN SCT015 BKN030=

USA.gov is the U.S. government's official web portal to all federal, state and local government web resources and services.